Time;durP1;ratioP1;P1;durP2;ratioP2;P2;SDS_P1;SDS_P2;PMS_P1;PMS_P2;Temp;Humidity;BMP_temperature;BMP_pressure;BME280_temperature;BME280_humidity;BME280_pressure;Samples;Min_cycle;Max_cycle;Signal;HPM_P1;HPM_P2
2022/01/17 00:00:23;;;;;;;5.93;1.70;;;20.60;52.00;;;;;;5031817;28;20051;-63
2022/01/17 00:02:50;;;;;;;4.50;1.77;;;20.60;52.00;;;;;;5014789;28;20053;-63
2022/01/17 00:05:15;;;;;;;6.10;1.95;;;20.60;52.00;;;;;;5032317;28;20091;-63
2022/01/17 00:07:41;;;;;;;7.40;2.33;;;20.60;52.00;;;;;;5031785;28;20049;-63
2022/01/17 00:10:07;;;;;;;4.93;1.70;;;20.50;51.90;;;;;;5032511;28;20041;-63
2022/01/17 00:12:36;;;;;;;4.97;1.92;;;20.50;51.90;;;;;;5032143;28;20111;-63
2022/01/17 00:15:09;;;;;;;5.68;1.88;;;20.50;51.90;;;;;;5031827;28;20049;-63
2022/01/17 00:17:39;;;;;;;5.80;1.90;;;20.50;52.00;;;;;;5031964;28;20482;-63
2022/01/17 00:20:10;;;;;;;5.47;1.95;;;20.50;51.90;;;;;;5015061;28;20057;-63
2022/01/17 00:22:36;;;;;;;4.55;1.67;;;20.50;51.80;;;;;;5031446;28;20080;-63
2022/01/17 00:25:03;;;;;;;6.45;1.75;;;20.40;51.70;;;;;;5014525;28;20132;-63
2022/01/17 00:27:28;;;;;;;5.07;1.50;;;20.50;51.70;;;;;;5032529;28;20045;-64
2022/01/17 00:29:54;;;;;;;6.82;1.90;;;20.40;51.70;;;;;;5031761;28;20052;-63
2022/01/17 00:32:19;;;;;;;4.03;1.70;;;20.40;51.60;;;;;;5032112;28;20405;-63
2022/01/17 00:34:46;;;;;;;5.97;1.85;;;20.40;51.60;;;;;;5032362;28;20401;-63
2022/01/17 00:37:12;;;;;;;5.05;1.50;;;20.40;51.50;;;;;;5031449;28;20053;-63
2022/01/17 00:39:37;;;;;;;4.05;1.30;;;20.40;51.50;;;;;;5032192;28;20133;-63
2022/01/17 00:42:03;;;;;;;4.72;1.65;;;20.40;51.50;;;;;;5032269;28;20045;-63
2022/01/17 00:44:28;;;;;;;6.15;1.60;;;20.40;51.50;;;;;;5031182;28;20037;-63
2022/01/17 00:46:54;;;;;;;5.03;1.60;;;20.40;51.50;;;;;;5032464;28;20050;-63
2022/01/17 00:49:19;;;;;;;6.10;1.45;;;20.30;51.40;;;;;;5033665;28;20045;-63
2022/01/17 00:51:46;;;;;;;5.30;1.65;;;20.30;51.40;;;;;;5035506;28;20051;-63
2022/01/17 00:54:12;;;;;;;4.55;1.50;;;20.30;51.30;;;;;;5035594;28;20492;-63
2022/01/17 00:56:37;;;;;;;4.85;1.58;;;20.30;51.30;;;;;;5035664;28;20049;-63
2022/01/17 00:59:03;;;;;;;3.38;1.25;;;20.30;51.30;;;;;;5034623;28;20054;-63
2022/01/17 01:01:28;;;;;;;5.22;1.33;;;20.20;51.20;;;;;;5035463;28;20052;-63
2022/01/17 01:03:54;;;;;;;3.47;1.20;;;20.20;51.20;;;;;;5035211;28;20045;-63
2022/01/17 01:06:19;;;;;;;4.07;1.67;;;20.20;51.20;;;;;;5035391;28;20045;-63
2022/01/17 01:08:45;;;;;;;3.88;1.40;;;20.20;51.20;;;;;;5018229;28;20377;-63
2022/01/17 01:11:10;;;;;;;3.58;1.35;;;20.20;51.10;;;;;;5035159;28;20141;-63
2022/01/17 01:13:36;;;;;;;4.95;1.20;;;20.20;51.10;;;;;;5035293;28;20041;-63
2022/01/17 01:21:26;;;;;;;5.45;1.55;;;20.20;51.10;;;;;;5035747;28;20050;-63
2022/01/17 01:29:16;;;;;;;3.95;1.40;;;20.20;51.10;;;;;;5017151;28;20041;-63
2022/01/17 01:31:47;;;;;;;4.68;1.50;;;20.20;51.10;;;;;;5035679;28;20052;-63
2022/01/17 01:34:13;;;;;;;4.72;1.48;;;20.10;51.00;;;;;;5034440;28;20041;-63
2022/01/17 01:36:39;;;;;;;5.95;1.30;;;20.10;50.90;;;;;;5017267;28;20125;-63
2022/01/17 01:39:06;;;;;;;5.97;1.63;;;20.10;50.90;;;;;;5034631;28;20116;-63
2022/01/17 01:41:42;;;;;;;4.88;1.58;;;20.10;50.90;;;;;;5034690;28;20059;-63
2022/01/17 01:44:16;;;;;;;5.07;1.48;;;20.10;50.80;;;;;;5017262;28;20053;-63
2022/01/17 01:46:42;;;;;;;5.20;1.30;;;20.10;50.80;;;;;;5034284;28;20073;-63
2022/01/17 01:49:07;;;;;;;5.15;1.48;;;20.10;50.80;;;;;;5035125;28;20099;-63
2022/01/17 01:51:33;;;;;;;2.85;1.00;;;20.00;50.70;;;;;;5034578;28;20053;-63
2022/01/17 01:53:58;;;;;;;4.50;1.40;;;20.00;50.70;;;;;;5034234;28;20076;-63
2022/01/17 01:56:24;;;;;;;4.05;1.13;;;20.00;50.70;;;;;;5034616;28;20041;-64
2022/01/17 01:58:49;;;;;;;3.35;0.98;;;20.00;50.70;;;;;;5034591;28;20084;-64
2022/01/17 02:01:15;;;;;;;5.25;1.10;;;20.00;50.70;;;;;;5033422;28;20163;-63
2022/01/17 02:03:40;;;;;;;5.97;1.05;;;20.00;50.60;;;;;;5034756;28;20048;-63
2022/01/17 02:06:06;;;;;;;4.68;1.15;;;20.00;50.60;;;;;;5034579;28;20045;-63
2022/01/17 02:08:31;;;;;;;5.15;1.25;;;19.90;50.50;;;;;;5033639;28;20045;-63
2022/01/17 02:10:58;;;;;;;4.20;1.23;;;19.90;50.50;;;;;;5034566;28;20505;-63
2022/01/17 02:13:25;;;;;;;3.05;1.15;;;19.90;50.50;;;;;;5016604;28;20053;-63
2022/01/17 02:15:52;;;;;;;4.87;1.33;;;19.90;50.40;;;;;;5033861;28;20053;-63
2022/01/17 02:18:29;;;;;;;4.95;1.10;;;19.90;50.40;;;;;;5034217;28;20145;-63
2022/01/17 02:23:39;;;;;;;6.05;1.38;;;19.90;50.40;;;;;;5034412;28;20037;-63
2022/01/17 02:26:04;;;;;;;4.85;1.48;;;19.90;50.30;;;;;;5034072;28;20481;-63
2022/01/17 02:28:33;;;;;;;6.43;1.20;;;19.90;51.00;;;;;;5033232;28;20052;-63
2022/01/17 02:30:59;;;;;;;5.38;1.08;;;19.90;50.30;;;;;;5034584;28;20095;-63
2022/01/17 02:33:25;;;;;;;3.83;1.10;;;19.90;50.30;;;;;;5033997;28;20564;-63
2022/01/17 02:35:50;;;;;;;5.90;1.00;;;19.90;50.30;;;;;;5033875;28;20132;-63
2022/01/17 02:38:16;;;;;;;5.07;1.27;;;19.90;50.30;;;;;;5016029;28;20061;-64
2022/01/17 02:40:41;;;;;;;4.05;0.95;;;19.90;50.20;;;;;;5034242;28;20112;-63
2022/01/17 02:43:07;;;;;;;3.30;1.10;;;19.90;50.20;;;;;;5033096;28;20124;-63
2022/01/17 02:48:20;;;;;;;4.47;1.17;;;19.90;50.00;;;;;;5012429;28;20140;-63
2022/01/17 02:50:46;;;;;;;5.03;1.15;;;19.90;50.00;;;;;;5033192;28;20050;-63
2022/01/17 02:53:12;;;;;;;4.47;0.95;;;19.90;50.00;;;;;;5016144;28;20048;-63
2022/01/17 02:55:40;;;;;;;3.58;1.20;;;19.90;49.90;;;;;;5033858;28;20057;-63
2022/01/17 02:58:05;;;;;;;6.30;1.20;;;20.00;49.90;;;;;;5032893;28;20179;-63
2022/01/17 03:00:31;;;;;;;6.38;1.33;;;20.00;49.90;;;;;;5033232;28;20671;-63
2022/01/17 03:02:56;;;;;;;5.15;1.10;;;19.90;49.80;;;;;;5033386;28;20045;-63
2022/01/17 03:05:22;;;;;;;6.65;1.00;;;20.00;49.80;;;;;;5032076;28;20081;-63
2022/01/17 03:07:49;;;;;;;5.57;0.93;;;19.90;49.70;;;;;;5033159;28;20056;-63
2022/01/17 03:13:32;;;;;;;3.88;1.00;;;20.00;49.70;;;;;;5032830;28;20049;-63
2022/01/17 03:15:59;;;;;;;4.70;0.95;;;20.00;49.70;;;;;;5004397;28;20057;-63
2022/01/17 03:18:25;;;;;;;4.28;1.00;;;20.00;49.60;;;;;;5032289;28;20060;-63
2022/01/17 03:20:51;;;;;;;3.88;1.00;;;20.00;49.60;;;;;;5033427;28;20042;-62
2022/01/17 03:23:17;;;;;;;6.47;1.02;;;20.00;49.60;;;;;;5015527;28;20094;-63
2022/01/17 03:25:42;;;;;;;3.42;1.23;;;20.00;49.60;;;;;;5032629;28;20051;-63
2022/01/17 03:28:08;;;;;;;3.75;0.90;;;20.00;49.60;;;;;;5033199;28;20168;-63
2022/01/17 03:30:33;;;;;;;5.25;1.23;;;20.00;49.50;;;;;;5015098;28;20053;-63
2022/01/17 03:33:11;;;;;;;6.13;1.20;;;20.00;49.50;;;;;;5032428;28;20041;-63
2022/01/17 03:35:38;;;;;;;4.55;0.90;;;20.10;49.50;;;;;;5033302;28;20084;-63
2022/01/17 03:38:05;;;;;;;4.25;1.10;;;20.10;49.50;;;;;;5015330;28;20042;-63
2022/01/17 03:40:30;;;;;;;5.50;1.33;;;20.10;49.40;;;;;;5032660;28;20073;-63
2022/01/17 03:42:56;;;;;;;3.70;0.90;;;20.10;49.40;;;;;;5032960;28;20164;-62
2022/01/17 03:45:21;;;;;;;4.70;0.98;;;20.10;49.30;;;;;;5032515;28;20057;-63
2022/01/17 03:47:48;;;;;;;3.00;1.08;;;20.10;49.40;;;;;;5014479;28;20049;-63
2022/01/17 03:50:16;;;;;;;5.45;1.13;;;20.10;49.30;;;;;;5032488;28;20046;-63
2022/01/17 03:52:41;;;;;;;4.60;1.23;;;20.10;49.30;;;;;;5032283;28;20038;-63
2022/01/17 03:55:09;;;;;;;5.55;1.30;;;20.10;49.30;;;;;;5032945;28;20099;-63
2022/01/17 03:57:34;;;;;;;5.82;0.93;;;20.20;49.30;;;;;;5032420;28;20041;-63
2022/01/17 04:00:00;;;;;;;5.85;1.17;;;20.20;49.30;;;;;;5031685;28;20133;-63
2022/01/17 04:02:25;;;;;;;3.47;0.90;;;20.10;49.20;;;;;;5032649;28;20119;-63
2022/01/17 04:04:51;;;;;;;4.72;1.15;;;20.20;49.20;;;;;;5032785;28;20057;-63
2022/01/17 04:07:16;;;;;;;6.05;0.98;;;20.20;49.20;;;;;;5031823;28;20064;-63
2022/01/17 04:09:42;;;;;;;4.95;1.20;;;20.20;49.10;;;;;;5032701;28;20080;-63
2022/01/17 04:12:08;;;;;;;4.03;0.88;;;20.10;49.10;;;;;;5032773;28;20045;-63
2022/01/17 04:14:36;;;;;;;5.43;1.20;;;20.20;49.10;;;;;;5031326;28;20041;-63
2022/01/17 04:17:02;;;;;;;3.92;0.95;;;20.10;49.10;;;;;;5014949;28;20056;-63
2022/01/17 04:19:28;;;;;;;3.78;0.90;;;20.20;49.10;;;;;;5032483;28;20136;-63
2022/01/17 04:21:53;;;;;;;5.43;0.82;;;20.20;49.10;;;;;;5014330;28;20503;-63
2022/01/17 04:24:19;;;;;;;6.15;1.20;;;20.20;49.10;;;;;;5035573;28;20071;-63
2022/01/17 04:26:45;;;;;;;3.83;1.08;;;20.20;49.00;;;;;;5036748;28;20102;-63
2022/01/17 04:29:11;;;;;;;5.57;1.08;;;20.20;49.00;;;;;;5017942;28;20046;-63
2022/01/17 04:31:36;;;;;;;5.07;1.15;;;20.20;48.90;;;;;;5036263;28;20037;-63
2022/01/17 04:34:02;;;;;;;5.22;1.05;;;20.20;49.00;;;;;;5036621;28;20046;-63
2022/01/17 04:36:28;;;;;;;4.43;0.80;;;20.20;48.90;;;;;;5017810;28;20050;-63
2022/01/17 04:38:53;;;;;;;5.13;1.05;;;20.20;48.90;;;;;;5036406;28;20045;-63
2022/01/17 04:41:21;;;;;;;4.35;0.90;;;20.20;48.90;;;;;;5036213;28;20092;-63
2022/01/17 04:46:15;;;;;;;;;;;20.20;48.80;;;;;;5036594;28;20048;-63
2022/01/17 04:48:40;;;;;;;5.45;1.00;;;20.20;48.90;;;;;;5036213;28;20292;-63
2022/01/17 04:51:08;;;;;;;3.47;0.80;;;20.10;48.90;;;;;;5035656;28;20045;-63
2022/01/17 04:53:33;;;;;;;4.40;0.90;;;20.20;48.90;;;;;;5018327;28;20052;-63
2022/01/17 04:55:59;;;;;;;3.63;0.70;;;20.20;48.80;;;;;;5035458;28;20038;-63
2022/01/17 04:58:24;;;;;;;4.20;1.00;;;20.10;48.80;;;;;;5017657;28;20060;-63
2022/01/17 05:00:50;;;;;;;3.95;1.08;;;20.20;48.80;;;;;;5031879;28;20042;-62
2022/01/17 05:03:20;;;;;;;4.25;0.90;;;20.20;48.80;;;;;;5024565;28;20056;-63
2022/01/17 05:05:46;;;;;;;5.80;1.05;;;20.20;48.80;;;;;;5014973;28;20449;-62
2022/01/17 05:08:11;;;;;;;3.92;0.90;;;20.20;48.80;;;;;;5015719;28;20107;-63
2022/01/17 05:10:37;;;;;;;3.80;0.82;;;20.20;48.80;;;;;;5015016;28;20046;-63
2022/01/17 05:13:03;;;;;;;6.78;1.20;;;20.20;48.80;;;;;;4998351;28;20456;-63
2022/01/17 05:15:35;;;;;;;4.05;1.20;;;20.20;48.80;;;;;;5015576;28;20038;-63
2022/01/17 05:20:36;;;;;;;4.57;0.70;;;20.20;48.80;;;;;;4997900;28;20050;-63
2022/01/17 05:23:02;;;;;;;3.20;0.70;;;20.20;48.70;;;;;;4998128;28;20057;-63
2022/01/17 05:25:27;;;;;;;5.80;0.80;;;20.30;48.80;;;;;;5014879;28;20042;-63
2022/01/17 05:27:53;;;;;;;4.88;0.90;;;20.20;48.70;;;;;;5015665;28;20042;-63
2022/01/17 05:30:20;;;;;;;3.78;0.70;;;20.20;48.70;;;;;;5015317;28;20401;-63
2022/01/17 05:32:46;;;;;;;4.57;0.95;;;20.20;48.80;;;;;;4997096;28;20440;-63
2022/01/17 05:35:12;;;;;;;3.38;0.80;;;20.20;48.80;;;;;;5014600;28;20589;-63
2022/01/17 05:37:37;;;;;;;4.20;1.00;;;20.30;48.80;;;;;;5015438;28;20129;-63
2022/01/17 05:40:04;;;;;;;4.47;0.85;;;20.30;48.80;;;;;;5014636;28;20046;-63
2022/01/17 05:42:30;;;;;;;3.70;0.90;;;20.20;48.70;;;;;;5015235;28;20078;-63
2022/01/17 05:44:55;;;;;;;4.68;1.05;;;20.30;48.80;;;;;;5015056;28;20125;-63
2022/01/17 05:47:21;;;;;;;4.20;0.90;;;20.30;48.70;;;;;;5014217;28;20045;-63
2022/01/17 05:49:46;;;;;;;5.15;1.05;;;20.30;48.70;;;;;;5016483;28;20053;-63
2022/01/17 05:52:12;;;;;;;3.88;0.88;;;20.30;48.60;;;;;;5014314;28;20037;-63
2022/01/17 05:54:38;;;;;;;4.95;0.82;;;20.30;48.80;;;;;;5015374;28;20038;-63
2022/01/17 05:57:04;;;;;;;5.57;0.93;;;20.30;49.40;;;;;;4997549;28;20139;-63
2022/01/17 05:59:29;;;;;;;3.97;0.80;;;20.30;48.70;;;;;;5013845;28;20085;-62
2022/01/17 06:01:55;;;;;;;5.65;1.33;;;20.30;48.60;;;;;;5015178;28;20053;-63
2022/01/17 06:04:20;;;;;;;3.75;0.90;;;20.30;48.60;;;;;;5014615;28;20129;-63
2022/01/17 06:06:46;;;;;;;5.65;0.82;;;20.30;48.60;;;;;;5014048;28;20122;-63
2022/01/17 06:09:12;;;;;;;3.67;0.80;;;20.30;48.60;;;;;;4996999;28;20053;-63
2022/01/17 06:11:37;;;;;;;5.70;0.82;;;20.30;48.60;;;;;;5014967;28;20057;-63
2022/01/17 06:14:04;;;;;;;4.72;1.13;;;20.30;48.50;;;;;;5014122;28;20048;-63
2022/01/17 06:16:30;;;;;;;4.70;0.90;;;20.30;48.50;;;;;;5014772;28;20046;-63
2022/01/17 06:18:56;;;;;;;4.40;0.85;;;20.30;48.50;;;;;;5014698;28;20042;-63
2022/01/17 06:21:21;;;;;;;5.35;0.90;;;20.30;48.50;;;;;;5013851;28;20125;-63
2022/01/17 06:23:47;;;;;;;3.20;0.85;;;20.30;48.50;;;;;;5014440;28;20467;-63
2022/01/17 06:26:12;;;;;;;3.67;1.00;;;20.30;48.50;;;;;;5014387;28;20042;-63
2022/01/17 06:28:38;;;;;;;4.18;0.80;;;20.30;48.80;;;;;;5013903;28;20171;-63
2022/01/17 06:31:03;;;;;;;3.97;1.35;;;20.30;48.40;;;;;;5014371;28;20037;-63
2022/01/17 06:33:29;;;;;;;5.07;0.90;;;20.30;48.50;;;;;;5014234;28;20489;-63
2022/01/17 06:35:54;;;;;;;4.35;1.02;;;20.40;48.50;;;;;;5013391;28;20052;-62
2022/01/17 06:38:20;;;;;;;2.45;0.60;;;20.30;48.40;;;;;;5014209;28;20133;-63
2022/01/17 06:40:45;;;;;;;4.80;1.10;;;20.40;48.50;;;;;;4996534;28;20046;-63
2022/01/17 06:43:11;;;;;;;5.03;0.95;;;20.40;48.50;;;;;;5013194;28;20108;-63
2022/01/17 06:45:37;;;;;;;6.90;1.27;;;20.40;48.50;;;;;;5014064;28;20485;-63
2022/01/17 06:48:05;;;;;;;6.38;1.23;;;20.40;48.50;;;;;;5014009;28;20405;-63
2022/01/17 06:50:31;;;;;;;5.00;0.80;;;20.40;48.50;;;;;;4995372;28;20649;-63
2022/01/17 06:52:57;;;;;;;3.50;0.75;;;20.40;48.50;;;;;;5014424;28;20041;-63
2022/01/17 06:55:22;;;;;;;3.33;0.70;;;20.40;48.50;;;;;;5013015;28;20053;-63
2022/01/17 06:57:48;;;;;;;4.43;0.73;;;20.40;48.60;;;;;;5014232;28;20046;-63
2022/01/17 07:00:14;;;;;;;4.75;1.02;;;20.40;48.50;;;;;;5013237;28;20050;-63
2022/01/17 07:02:39;;;;;;;4.75;1.00;;;20.40;48.50;;;;;;5013281;28;20104;-63
2022/01/17 07:05:05;;;;;;;2.97;0.73;;;20.40;48.50;;;;;;5013554;28;20045;-63
2022/01/17 07:07:31;;;;;;;4.88;0.90;;;20.40;48.50;;;;;;4996266;28;20057;-63
2022/01/17 07:09:56;;;;;;;3.58;0.82;;;20.40;48.50;;;;;;4995514;28;20056;-63
2022/01/17 07:12:22;;;;;;;4.10;0.80;;;20.40;48.50;;;;;;5031746;28;20037;-62
2022/01/17 07:14:47;;;;;;;4.05;0.90;;;20.40;48.40;;;;;;5033348;28;20425;-60
2022/01/17 07:17:13;;;;;;;3.58;0.93;;;20.50;48.50;;;;;;5032371;28;20045;-63
2022/01/17 07:19:38;;;;;;;6.18;1.25;;;20.40;48.50;;;;;;5015254;28;20507;-63
2022/01/17 07:22:04;;;;;;;5.72;1.20;;;20.40;48.50;;;;;;5033581;28;20057;-63
2022/01/17 07:24:30;;;;;;;6.18;1.10;;;20.50;48.60;;;;;;5032389;28;20041;-63
2022/01/17 07:26:56;;;;;;;5.50;1.00;;;20.50;48.60;;;;;;5033400;28;20045;-63
2022/01/17 07:29:23;;;;;;;4.90;1.08;;;20.50;48.60;;;;;;5014976;28;20053;-63
2022/01/17 07:31:48;;;;;;;4.90;1.23;;;20.50;48.70;;;;;;5032061;28;20042;-63
2022/01/17 07:34:14;;;;;;;5.57;1.13;;;20.50;48.70;;;;;;5032569;28;20041;-63
2022/01/17 07:36:39;;;;;;;3.78;1.00;;;20.50;48.80;;;;;;5033308;28;20381;-63
2022/01/17 07:39:05;;;;;;;4.32;1.08;;;20.50;48.80;;;;;;5032245;28;20045;-63
2022/01/17 07:41:30;;;;;;;4.28;1.38;;;20.50;48.90;;;;;;5032863;28;20488;-63
2022/01/17 07:43:56;;;;;;;7.13;1.55;;;20.50;48.90;;;;;;5032806;28;20083;-63
2022/01/17 07:46:31;;;;;;;4.80;1.30;;;20.50;49.00;;;;;;5031743;28;20154;-63
2022/01/17 07:51:29;;;;;;;2.92;0.90;;;20.50;49.90;;;;;;5023386;28;20037;-62
2022/01/17 07:53:55;;;;;;;6.05;1.65;;;20.50;49.40;;;;;;5003787;28;20042;-62
2022/01/17 07:56:20;;;;;;;4.32;1.02;;;20.50;49.60;;;;;;5022049;28;20038;-63
2022/01/17 07:58:46;;;;;;;6.00;1.60;;;20.50;49.80;;;;;;5011170;28;20382;-61
2022/01/17 08:01:11;;;;;;;4.97;1.45;;;20.50;49.80;;;;;;4995137;28;20054;-63
2022/01/17 08:03:37;;;;;;;6.05;1.30;;;20.60;49.70;;;;;;4995267;28;20050;-63
2022/01/17 08:06:03;;;;;;;4.82;1.20;;;20.60;49.80;;;;;;5011996;28;20596;-63
2022/01/17 08:08:28;;;;;;;9.27;1.75;;;20.60;49.90;;;;;;5012717;28;20165;-64
2022/01/17 08:10:54;;;;;;;5.25;1.23;;;20.60;50.00;;;;;;4995280;28;20437;-62
2022/01/17 08:13:19;;;;;;;7.32;1.38;;;20.60;50.80;;;;;;5011535;28;20084;-62
2022/01/17 08:15:46;;;;;;;5.68;1.70;;;20.60;50.30;;;;;;4995315;28;20100;-61
2022/01/17 08:18:12;;;;;;;7.55;1.80;;;20.60;50.30;;;;;;5012788;28;20054;-61
2022/01/17 08:20:37;;;;;;;5.30;1.27;;;20.60;50.30;;;;;;5011912;28;20056;-61
2022/01/17 08:23:03;;;;;;;4.82;1.63;;;20.60;50.40;;;;;;5012862;28;20049;-61
2022/01/17 08:25:29;;;;;;;6.50;1.60;;;20.60;50.30;;;;;;5012086;28;20042;-61
2022/01/17 08:27:54;;;;;;;5.60;1.67;;;20.60;50.20;;;;;;4994445;28;20041;-62
2022/01/17 08:30:20;;;;;;;8.85;2.10;;;20.70;50.40;;;;;;5012376;28;20379;-62
2022/01/17 08:32:45;;;;;;;6.80;2.13;;;20.60;50.30;;;;;;5016016;28;20050;-62
2022/01/17 08:35:11;;;;;;;7.72;2.28;;;20.70;50.40;;;;;;5031823;28;20138;-61
2022/01/17 08:37:37;;;;;;;5.35;1.90;;;20.70;50.40;;;;;;5031985;28;20436;-62
2022/01/17 08:40:03;;;;;;;8.13;1.80;;;20.70;50.50;;;;;;5014747;28;20045;-63
2022/01/17 08:42:29;;;;;;;6.10;1.77;;;20.70;50.50;;;;;;5027720;28;20187;-61
2022/01/17 08:44:56;;;;;;;8.32;2.22;;;20.70;50.40;;;;;;5025540;28;20045;-61
2022/01/17 08:47:21;;;;;;;7.38;2.00;;;20.70;50.50;;;;;;5031384;28;20366;-61
2022/01/17 08:49:48;;;;;;;6.50;1.67;;;20.70;50.50;;;;;;5031335;28;20495;-61
2022/01/17 08:52:17;;;;;;;6.60;2.20;;;20.70;50.50;;;;;;5031970;28;20042;-61
2022/01/17 08:54:43;;;;;;;7.07;1.90;;;20.70;50.60;;;;;;5032473;28;20054;-62
2022/01/17 08:57:09;;;;;;;6.03;1.80;;;20.70;50.60;;;;;;5031768;28;20056;-61
2022/01/17 08:59:34;;;;;;;8.90;1.67;;;20.70;50.60;;;;;;5031564;28;20500;-61
2022/01/17 09:02:00;;;;;;;6.20;2.08;;;20.70;50.60;;;;;;5031722;28;20072;-61
2022/01/17 09:04:26;;;;;;;8.68;2.13;;;20.70;50.60;;;;;;5031779;28;20048;-62
2022/01/17 09:06:51;;;;;;;6.10;1.67;;;20.70;50.50;;;;;;5032177;28;20041;-62
2022/01/17 09:09:17;;;;;;;6.30;1.92;;;20.70;50.60;;;;;;5031191;28;20045;-62
2022/01/17 09:11:43;;;;;;;7.45;2.15;;;20.70;50.50;;;;;;5035840;28;20057;-62
2022/01/17 09:14:09;;;;;;;6.53;2.10;;;20.70;51.20;;;;;;5035706;28;20041;-62
2022/01/17 09:16:34;;;;;;;6.88;2.00;;;20.70;50.40;;;;;;5034603;28;20045;-61
2022/01/17 09:19:01;;;;;;;6.22;2.20;;;20.70;50.30;;;;;;5035512;28;20378;-62
2022/01/17 09:21:27;;;;;;;6.50;2.30;;;20.70;50.30;;;;;;5035425;28;20037;-65
2022/01/17 09:23:57;;;;;;;9.95;2.38;;;20.70;50.20;;;;;;5034960;28;20288;-61
2022/01/17 09:26:25;;;;;;;7.45;1.83;;;20.70;50.10;;;;;;5017532;28;20107;-62
2022/01/17 09:28:51;;;;;;;8.23;2.42;;;20.70;50.20;;;;;;5035519;28;20053;-62
2022/01/17 09:31:16;;;;;;;7.30;2.30;;;20.70;50.20;;;;;;5034745;28;20057;-62
2022/01/17 09:33:42;;;;;;;7.88;1.95;;;20.70;50.30;;;;;;5035383;28;20087;-61
2022/01/17 09:36:07;;;;;;;9.88;2.15;;;20.70;50.30;;;;;;5035123;28;20042;-62
2022/01/17 09:38:33;;;;;;;5.10;1.58;;;20.70;50.40;;;;;;5016811;28;20137;-62
2022/01/17 09:40:58;;;;;;;11.05;2.30;;;20.70;50.40;;;;;;5017743;28;20103;-62
2022/01/17 09:43:24;;;;;;;6.60;2.25;;;20.80;50.60;;;;;;5016866;28;20041;-62
2022/01/17 09:45:50;;;;;;;7.75;2.20;;;20.80;50.60;;;;;;5034334;28;20171;-61
2022/01/17 09:48:20;;;;;;;5.35;1.80;;;20.80;50.70;;;;;;5016930;28;20096;-61
2022/01/17 09:50:58;;;;;;;7.32;2.20;;;20.80;50.60;;;;;;5034899;28;20386;-62
2022/01/17 09:53:23;;;;;;;9.93;2.22;;;20.80;50.70;;;;;;5034229;28;20052;-62
2022/01/17 09:55:49;;;;;;;6.90;2.30;;;20.80;50.60;;;;;;5034990;28;20501;-62
2022/01/17 09:58:15;;;;;;;7.35;2.60;;;20.80;50.70;;;;;;5016092;28;20052;-62
2022/01/17 10:00:41;;;;;;;6.18;1.92;;;20.80;50.70;;;;;;5034964;28;20465;-62
2022/01/17 10:03:12;;;;;;;8.80;2.42;;;20.80;50.80;;;;;;5035054;28;20198;-62
2022/01/17 10:05:38;;;;;;;7.20;2.35;;;20.80;50.80;;;;;;5016350;28;20080;-62
2022/01/17 10:08:04;;;;;;;6.03;2.13;;;20.80;50.80;;;;;;5017139;28;20065;-62
2022/01/17 10:10:34;;;;;;;6.13;2.00;;;20.80;50.80;;;;;;5016904;28;20049;-62
2022/01/17 10:13:11;;;;;;;11.57;2.72;;;20.90;50.80;;;;;;5016395;28;20166;-61
2022/01/17 10:15:48;;;;;;;6.93;2.17;;;20.90;50.90;;;;;;5034774;28;20053;-62
2022/01/17 10:18:33;;;;;;;7.75;2.25;;;20.90;50.90;;;;;;5034420;28;20045;-62
2022/01/17 10:21:04;;;;;;;6.43;2.35;;;20.90;50.90;;;;;;5033417;28;20054;-62
2022/01/17 10:23:45;;;;;;;6.78;2.10;;;20.90;50.90;;;;;;5033417;28;20091;-62
2022/01/17 10:26:32;;;;;;;7.80;2.28;;;20.90;50.90;;;;;;5032102;28;20052;-61
2022/01/17 10:29:15;;;;;;;9.90;2.33;;;20.90;50.90;;;;;;5032169;28;20029;-61
2022/01/17 10:37:10;;;;;;;8.30;2.13;;;20.90;50.60;;;;;;5034339;28;20050;-61
2022/01/17 10:39:37;;;;;;;7.35;2.10;;;20.90;50.50;;;;;;5016246;28;20042;-61
2022/01/17 10:42:22;;;;;;;8.50;2.05;;;20.90;50.40;;;;;;5033598;28;20049;-62
2022/01/17 10:44:48;;;;;;;7.88;2.03;;;21.00;50.50;;;;;;5035012;28;20045;-61
2022/01/17 10:47:25;;;;;;;9.32;2.30;;;21.00;50.50;;;;;;5034533;28;20051;-61
2022/01/17 10:49:55;;;;;;;7.68;1.58;;;21.00;50.40;;;;;;5033075;28;20396;-61
2022/01/17 10:52:28;;;;;;;7.10;1.95;;;21.00;50.60;;;;;;5033491;28;20556;-63
2022/01/17 10:54:58;;;;;;;10.82;1.85;;;21.00;50.80;;;;;;5015351;28;20052;-63
2022/01/17 10:57:23;;;;;;;7.25;1.70;;;21.00;50.70;;;;;;5015872;28;20056;-63
2022/01/17 10:59:51;;;;;;;7.65;1.77;;;21.00;50.70;;;;;;5015664;28;20049;-63
2022/01/17 11:02:17;;;;;;;6.90;1.80;;;21.00;50.60;;;;;;5015549;28;20481;-63
2022/01/17 11:04:43;;;;;;;9.10;2.45;;;21.10;50.70;;;;;;5033705;28;20057;-63
2022/01/17 11:07:08;;;;;;;9.13;2.20;;;21.00;50.60;;;;;;5033621;28;20049;-63
2022/01/17 11:09:41;;;;;;;10.10;2.30;;;21.10;50.60;;;;;;5025871;28;20049;-62
2022/01/17 11:12:14;;;;;;;6.82;2.17;;;21.10;50.70;;;;;;5019611;28;20469;-61
2022/01/17 11:14:40;;;;;;;6.50;2.10;;;21.10;50.80;;;;;;5021974;28;20037;-61
2022/01/17 11:17:26;;;;;;;6.82;2.08;;;21.10;50.90;;;;;;5014923;28;20481;-62
2022/01/17 11:22:29;;;;;;;6.63;1.73;;;21.10;50.90;;;;;;5013267;28;20050;-61
2022/01/17 11:24:57;;;;;;;7.60;2.20;;;21.10;50.80;;;;;;5013020;28;20120;-61
2022/01/17 11:27:22;;;;;;;9.18;1.90;;;21.10;50.90;;;;;;5015953;28;20077;-62
2022/01/17 11:29:48;;;;;;;7.65;1.77;;;21.10;50.80;;;;;;5014911;28;20078;-61
2022/01/17 11:32:14;;;;;;;5.75;1.50;;;21.10;50.80;;;;;;5012689;28;20038;-61
2022/01/17 11:34:39;;;;;;;10.30;2.50;;;21.10;50.80;;;;;;5013192;28;20046;-61
2022/01/17 11:37:05;;;;;;;8.13;2.03;;;21.10;50.80;;;;;;5012596;28;20108;-62
2022/01/17 11:39:30;;;;;;;7.22;2.63;;;21.10;50.80;;;;;;4995214;28;20600;-62
2022/01/17 11:41:57;;;;;;;11.20;2.30;;;21.10;50.90;;;;;;4995625;28;20049;-61
2022/01/17 11:44:32;;;;;;;7.65;2.25;;;21.10;50.90;;;;;;5011399;28;20095;-62
2022/01/17 11:46:59;;;;;;;7.28;2.47;;;21.10;50.90;;;;;;5013520;28;20120;-62
2022/01/17 11:49:26;;;;;;;9.82;2.45;;;21.20;50.90;;;;;;5012980;28;20042;-62
2022/01/17 11:51:52;;;;;;;8.73;2.00;;;21.10;50.90;;;;;;5012418;28;20409;-62
2022/01/17 11:54:18;;;;;;;8.70;2.03;;;21.10;50.80;;;;;;5012890;28;20067;-61
2022/01/17 11:56:46;;;;;;;10.48;2.25;;;21.10;50.80;;;;;;5013245;28;20057;-61
2022/01/17 11:59:24;;;;;;;7.72;1.58;;;21.20;50.90;;;;;;4994471;28;20088;-61
2022/01/17 12:02:13;;;;;;;9.55;2.03;;;21.20;50.90;;;;;;5013178;28;20050;-62
2022/01/17 12:04:38;;;;;;;8.75;1.95;;;21.20;50.80;;;;;;5012834;28;20042;-61
2022/01/17 12:07:04;;;;;;;6.90;1.70;;;21.10;50.80;;;;;;5012511;28;20057;-61
2022/01/17 12:09:30;;;;;;;7.78;2.38;;;21.10;50.70;;;;;;4995354;28;20420;-61
2022/01/17 12:12:07;;;;;;;10.00;2.35;;;21.10;50.80;;;;;;5012350;28;20050;-62
2022/01/17 12:14:40;;;;;;;9.35;2.00;;;21.10;50.70;;;;;;5012767;28;20096;-62
2022/01/17 12:17:32;;;;;;;8.60;2.35;;;21.10;50.70;;;;;;5013145;28;20175;-62
2022/01/17 12:20:03;;;;;;;8.45;2.28;;;21.20;50.70;;;;;;5009946;28;20058;-62
2022/01/17 12:22:38;;;;;;;11.52;2.70;;;21.20;50.70;;;;;;5012449;28;20045;-62
2022/01/17 12:25:20;;;;;;;10.55;2.20;;;21.20;50.70;;;;;;5012897;28;20069;-62
2022/01/17 12:27:46;;;;;;;8.65;2.00;;;21.20;50.60;;;;;;4995360;28;20042;-62
2022/01/17 12:30:12;;;;;;;7.63;1.90;;;21.20;50.60;;;;;;4995111;28;20052;-62
2022/01/17 12:32:39;;;;;;;10.15;2.10;;;21.10;50.50;;;;;;5012780;28;20066;-61
2022/01/17 12:35:05;;;;;;;10.88;2.35;;;21.20;50.50;;;;;;5012160;28;20038;-63
2022/01/17 12:37:44;;;;;;;8.20;1.67;;;21.20;50.50;;;;;;5012549;28;20405;-62
2022/01/17 12:40:14;;;;;;;10.27;2.50;;;21.20;50.50;;;;;;5012050;28;20034;-62
2022/01/17 12:43:05;;;;;;;12.15;2.53;;;21.20;50.40;;;;;;5012560;28;20057;-62
2022/01/17 12:45:41;;;;;;;10.25;2.20;;;21.20;50.30;;;;;;5015710;28;20052;-62
2022/01/17 12:48:20;;;;;;;8.27;2.03;;;21.20;50.30;;;;;;5015852;28;20038;-61
2022/01/17 12:50:47;;;;;;;9.13;2.28;;;21.20;50.30;;;;;;5016382;28;20050;-62
2022/01/17 12:53:14;;;;;;;11.38;2.50;;;21.20;50.30;;;;;;5016199;28;20046;-62
2022/01/17 12:55:42;;;;;;;7.97;1.77;;;21.20;50.30;;;;;;5015927;28;20054;-62
2022/01/17 12:58:14;;;;;;;10.40;2.13;;;21.20;50.30;;;;;;5016562;28;20069;-62
2022/01/17 13:01:07;;;;;;;7.68;1.88;;;21.20;50.30;;;;;;5016443;28;20053;-62
2022/01/17 13:03:34;;;;;;;10.52;2.10;;;21.20;50.10;;;;;;5011221;28;20073;-62
2022/01/17 13:06:00;;;;;;;9.20;2.30;;;21.20;50.20;;;;;;5016074;28;20520;-62
2022/01/17 13:08:26;;;;;;;7.47;1.98;;;21.20;50.20;;;;;;5015342;28;20149;-62
2022/01/17 13:10:52;;;;;;;11.07;2.58;;;21.20;50.10;;;;;;5016154;28;20125;-62
2022/01/17 13:13:18;;;;;;;9.20;1.90;;;21.20;50.20;;;;;;5015914;28;20042;-62
2022/01/17 13:15:57;;;;;;;8.43;2.33;;;21.20;50.20;;;;;;5014861;28;20038;-62
2022/01/17 13:18:23;;;;;;;9.00;2.30;;;21.20;50.00;;;;;;5015753;28;20103;-61
2022/01/17 13:20:48;;;;;;;7.78;2.15;;;21.20;50.10;;;;;;5015807;28;20046;-62